sensor_id;sensor_type;location;lat;lon;timestamp;pressure;altitude;pressure_sealevel;temperature;humidity
50590;BME280;36547;50.514;30.840;2024-02-16T00:00:04;101277.30;;;4.76;89.18
50590;BME280;36547;50.514;30.840;2024-02-16T00:01:08;101273.84;;;4.74;89.05
50590;BME280;36547;50.514;30.840;2024-02-16T00:02:11;101270.36;;;4.71;89.00
50590;BME280;36547;50.514;30.840;2024-02-16T00:03:13;101275.61;;;4.72;89.09
50590;BME280;36547;50.514;30.840;2024-02-16T00:04:15;101273.86;;;4.71;89.16
50590;BME280;36547;50.514;30.840;2024-02-16T00:05:17;101279.12;;;4.71;89.13
50590;BME280;36547;50.514;30.840;2024-02-16T00:06:20;101271.20;;;4.74;89.25
50590;BME280;36547;50.514;30.840;2024-02-16T00:07:23;101270.34;;;4.72;89.15
50590;BME280;36547;50.514;30.840;2024-02-16T00:08:25;101263.34;;;4.70;89.12
50590;BME280;36547;50.514;30.840;2024-02-16T00:09:27;101263.33;;;4.71;89.12
50590;BME280;36547;50.514;30.840;2024-02-16T00:10:30;101264.20;;;4.72;89.24
50590;BME280;36547;50.514;30.840;2024-02-16T00:11:33;101265.97;;;4.71;89.21
50590;BME280;36547;50.514;30.840;2024-02-16T00:12:37;101262.45;;;4.72;89.29
50590;BME280;36547;50.514;30.840;2024-02-16T00:13:41;101265.95;;;4.73;89.30
50590;BME280;36547;50.514;30.840;2024-02-16T00:14:43;101265.08;;;4.72;89.25
50590;BME280;36547;50.514;30.840;2024-02-16T00:15:46;101264.20;;;4.73;89.25
50590;BME280;36547;50.514;30.840;2024-02-16T00:16:48;101265.08;;;4.72;89.13
50590;BME280;36547;50.514;30.840;2024-02-16T00:17:50;101268.59;;;4.71;89.18
50590;BME280;36547;50.514;30.840;2024-02-16T00:18:53;101261.56;;;4.73;89.23
50590;BME280;36547;50.514;30.840;2024-02-16T00:19:56;101265.06;;;4.74;89.27
50590;BME280;36547;50.514;30.840;2024-02-16T00:20:59;101265.05;;;4.75;89.33
50590;BME280;36547;50.514;30.840;2024-02-16T00:22:01;101267.70;;;4.74;89.27
50590;BME280;36547;50.514;30.840;2024-02-16T00:23:04;101265.93;;;4.76;89.29
50590;BME280;36547;50.514;30.840;2024-02-16T00:24:06;101270.32;;;4.75;89.23
50590;BME280;36547;50.514;30.840;2024-02-16T00:25:09;101265.88;;;4.77;89.30
50590;BME280;36547;50.514;30.840;2024-02-16T00:26:12;101263.31;;;4.74;89.30
50590;BME280;36547;50.514;30.840;2024-02-16T00:27:15;101263.31;;;4.74;89.22
50590;BME280;36547;50.514;30.840;2024-02-16T00:28:18;101265.88;;;4.77;89.34
50590;BME280;36547;50.514;30.840;2024-02-16T00:29:21;101267.64;;;4.77;89.27
50590;BME280;36547;50.514;30.840;2024-02-16T00:30:23;101263.25;;;4.77;89.35
50590;BME280;36547;50.514;30.840;2024-02-16T00:31:25;101258.05;;;4.74;89.16
50590;BME280;36547;50.514;30.840;2024-02-16T00:32:28;101265.93;;;4.76;89.13
50590;BME280;36547;50.514;30.840;2024-02-16T00:33:31;101265.88;;;4.79;89.22
50590;BME280;36547;50.514;30.840;2024-02-16T00:34:37;101263.30;;;4.76;89.13
50590;BME280;36547;50.514;30.840;2024-02-16T00:35:41;101268.58;;;4.74;89.18
50590;BME280;36547;50.514;30.840;2024-02-16T00:36:44;101264.13;;;4.78;89.30
50590;BME280;36547;50.514;30.840;2024-02-16T00:37:46;101261.50;;;4.76;89.18
50590;BME280;36547;50.514;30.840;2024-02-16T00:38:48;101264.13;;;4.76;89.10
50590;BME280;36547;50.514;30.840;2024-02-16T00:39:51;101260.62;;;4.77;89.15
50590;BME280;36547;50.514;30.840;2024-02-16T00:40:54;101265.88;;;4.77;89.19
50590;BME280;36547;50.514;30.840;2024-02-16T00:41:56;101258.91;;;4.75;89.03
50590;BME280;36547;50.514;30.840;2024-02-16T00:42:58;101265.94;;;4.74;89.05
50590;BME280;36547;50.514;30.840;2024-02-16T00:44:00;101268.52;;;4.77;89.11
50590;BME280;36547;50.514;30.840;2024-02-16T00:45:03;101256.23;;;4.76;89.20
50590;BME280;36547;50.514;30.840;2024-02-16T00:46:06;101261.50;;;4.76;89.15
50590;BME280;36547;50.514;30.840;2024-02-16T00:47:09;101263.23;;;4.79;89.08
50590;BME280;36547;50.514;30.840;2024-02-16T00:48:11;101261.50;;;4.76;89.00
50590;BME280;36547;50.514;30.840;2024-02-16T00:49:14;101265.00;;;4.78;89.19
50590;BME280;36547;50.514;30.840;2024-02-16T00:50:17;101264.13;;;4.78;89.20
50590;BME280;36547;50.514;30.840;2024-02-16T00:51:20;101265.88;;;4.77;89.15
50590;BME280;36547;50.514;30.840;2024-02-16T00:52:22;101256.21;;;4.79;89.15
50590;BME280;36547;50.514;30.840;2024-02-16T00:53:25;101265.86;;;4.80;89.19
50590;BME280;36547;50.514;30.840;2024-02-16T00:54:27;101268.50;;;4.79;89.08
50590;BME280;36547;50.514;30.840;2024-02-16T00:55:33;101263.23;;;4.80;89.05
50590;BME280;36547;50.514;30.840;2024-02-16T00:56:36;101260.61;;;4.79;89.02
50590;BME280;36547;50.514;30.840;2024-02-16T00:57:38;101263.23;;;4.80;89.07
50590;BME280;36547;50.514;30.840;2024-02-16T00:58:41;101269.36;;;4.82;89.02
50590;BME280;36547;50.514;30.840;2024-02-16T00:59:44;101270.22;;;4.84;88.97
50590;BME280;36547;50.514;30.840;2024-02-16T01:00:46;101261.44;;;4.84;88.97
50590;BME280;36547;50.514;30.840;2024-02-16T01:01:49;101259.69;;;4.84;88.98
50590;BME280;36547;50.514;30.840;2024-02-16T01:02:52;101252.67;;;4.83;88.77
50590;BME280;36547;50.514;30.840;2024-02-16T01:03:54;101257.02;;;4.87;88.90
50590;BME280;36547;50.514;30.840;2024-02-16T01:04:56;101258.78;;;4.87;88.78
50590;BME280;36547;50.514;30.840;2024-02-16T01:05:59;101255.27;;;4.88;88.79
50590;BME280;36547;50.514;30.840;2024-02-16T01:07:01;101255.27;;;4.88;88.62
50590;BME280;36547;50.514;30.840;2024-02-16T01:08:04;101259.66;;;4.87;88.58
50590;BME280;36547;50.514;30.840;2024-02-16T01:09:06;101259.66;;;4.87;88.57
50590;BME280;36547;50.514;30.840;2024-02-16T01:10:09;101257.03;;;4.86;88.50
50590;BME280;36547;50.514;30.840;2024-02-16T01:11:12;101259.66;;;4.87;88.42
50590;BME280;36547;50.514;30.840;2024-02-16T01:12:14;101259.66;;;4.87;88.44
50590;BME280;36547;50.514;30.840;2024-02-16T01:13:17;101258.78;;;4.87;88.44
50590;BME280;36547;50.514;30.840;2024-02-16T01:14:20;101259.66;;;4.87;88.34
50590;BME280;36547;50.514;30.840;2024-02-16T01:15:22;101265.80;;;4.88;88.30
50590;BME280;36547;50.514;30.840;2024-02-16T01:16:24;101264.04;;;4.88;88.32
50590;BME280;36547;50.514;30.840;2024-02-16T01:17:27;101265.80;;;4.88;88.26
50590;BME280;36547;50.514;30.840;2024-02-16T01:18:29;101254.39;;;4.87;88.25
50590;BME280;36547;50.514;30.840;2024-02-16T01:19:32;101264.03;;;4.90;88.23
50590;BME280;36547;50.514;30.840;2024-02-16T01:20:35;101264.92;;;4.87;88.14
50590;BME280;36547;50.514;30.840;2024-02-16T01:21:37;101257.90;;;4.88;88.14
50590;BME280;36547;50.514;30.840;2024-02-16T01:22:40;101256.14;;;4.88;88.13
50590;BME280;36547;50.514;30.840;2024-02-16T01:23:42;101249.94;;;4.91;88.06
50590;BME280;36547;50.514;30.840;2024-02-16T01:24:44;101257.83;;;4.92;88.05
50590;BME280;36547;50.514;30.840;2024-02-16T01:25:47;101252.55;;;4.92;87.99
50590;BME280;36547;50.514;30.840;2024-02-16T01:26:50;101257.89;;;4.89;87.78
50590;BME280;36547;50.514;30.840;2024-02-16T01:27:52;101263.09;;;4.92;87.75
50590;BME280;36547;50.514;30.840;2024-02-16T01:28:55;101258.71;;;4.91;87.73
50590;BME280;36547;50.514;30.840;2024-02-16T01:29:57;101260.47;;;4.91;87.72
50590;BME280;36547;50.514;30.840;2024-02-16T01:31:00;101255.19;;;4.92;87.68
50590;BME280;36547;50.514;30.840;2024-02-16T01:32:02;101263.09;;;4.92;87.58
50590;BME280;36547;50.514;30.840;2024-02-16T01:33:05;101259.63;;;4.90;87.53
50590;BME280;36547;50.514;30.840;2024-02-16T01:34:08;101261.34;;;4.91;87.55
50590;BME280;36547;50.514;30.840;2024-02-16T01:35:10;101263.98;;;4.91;87.55
50590;BME280;36547;50.514;30.840;2024-02-16T01:36:13;101257.84;;;4.91;87.57
50590;BME280;36547;50.514;30.840;2024-02-16T01:37:15;101263.11;;;4.91;87.55
50590;BME280;36547;50.514;30.840;2024-02-16T01:38:18;101249.09;;;4.90;87.58
50590;BME280;36547;50.514;30.840;2024-02-16T01:39:20;101255.20;;;4.91;87.57
50590;BME280;36547;50.514;30.840;2024-02-16T01:40:23;101258.76;;;4.90;87.46
50590;BME280;36547;50.514;30.840;2024-02-16T01:41:25;101252.62;;;4.89;87.50
50590;BME280;36547;50.514;30.840;2024-02-16T01:42:27;101255.20;;;4.91;87.48
50590;BME280;36547;50.514;30.840;2024-02-16T01:43:30;101253.44;;;4.91;87.43
50590;BME280;36547;50.514;30.840;2024-02-16T01:44:32;101251.73;;;4.90;87.41
50590;BME280;36547;50.514;30.840;2024-02-16T01:45:34;101251.73;;;4.90;87.42
50590;BME280;36547;50.514;30.840;2024-02-16T01:46:37;101253.43;;;4.93;87.42
50590;BME280;36547;50.514;30.840;2024-02-16T01:47:41;101246.39;;;4.95;87.37
50590;BME280;36547;50.514;30.840;2024-02-16T01:48:45;101255.16;;;4.95;87.24
50590;BME280;36547;50.514;30.840;2024-02-16T01:49:48;101257.80;;;4.95;87.15
50590;BME280;36547;50.514;30.840;2024-02-16T01:50:52;101257.81;;;4.94;86.96
50590;BME280;36547;50.514;30.840;2024-02-16T01:51:55;101251.69;;;4.92;86.94
50590;BME280;36547;50.514;30.840;2024-02-16T01:52:58;101247.29;;;4.92;86.97
50590;BME280;36547;50.514;30.840;2024-02-16T01:54:01;101253.44;;;4.91;86.89
50590;BME280;36547;50.514;30.840;2024-02-16T01:55:04;101250.78;;;4.94;86.88
50590;BME280;36547;50.514;30.840;2024-02-16T01:56:08;101250.81;;;4.91;86.78
50590;BME280;36547;50.514;30.840;2024-02-16T01:57:10;101251.69;;;4.92;86.81
50590;BME280;36547;50.514;30.840;2024-02-16T01:58:13;101251.67;;;4.93;86.79
50590;BME280;36547;50.514;30.840;2024-02-16T01:59:15;101249.03;;;4.93;86.72
50590;BME280;36547;50.514;30.840;2024-02-16T02:00:18;101249.94;;;4.91;86.61
50590;BME280;36547;50.514;30.840;2024-02-16T02:01:21;101249.94;;;4.91;86.62
50590;BME280;36547;50.514;30.840;2024-02-16T02:02:24;101249.94;;;4.91;86.62
50590;BME280;36547;50.514;30.840;2024-02-16T02:03:26;101256.08;;;4.91;86.59
50590;BME280;36547;50.514;30.840;2024-02-16T02:04:28;101263.09;;;4.92;86.59
50590;BME280;36547;50.514;30.840;2024-02-16T02:05:31;101252.55;;;4.92;86.55
50590;BME280;36547;50.514;30.840;2024-02-16T02:06:34;101258.76;;;4.90;86.56
50590;BME280;36547;50.514;30.840;2024-02-16T02:07:36;101259.63;;;4.90;86.57
50590;BME280;36547;50.514;30.840;2024-02-16T02:08:39;101263.09;;;4.92;86.66
50590;BME280;36547;50.514;30.840;2024-02-16T02:09:42;101261.34;;;4.91;86.57
50590;BME280;36547;50.514;30.840;2024-02-16T02:10:45;101264.85;;;4.92;86.62
50590;BME280;36547;50.514;30.840;2024-02-16T02:11:48;101259.63;;;4.90;86.56
50590;BME280;36547;50.514;30.840;2024-02-16T02:12:50;101259.63;;;4.90;86.57
50590;BME280;36547;50.514;30.840;2024-02-16T02:13:53;101259.64;;;4.89;86.55
50590;BME280;36547;50.514;30.840;2024-02-16T02:14:55;101260.52;;;4.89;86.54
50590;BME280;36547;50.514;30.840;2024-02-16T02:15:58;101268.36;;;4.92;86.61
50590;BME280;36547;50.514;30.840;2024-02-16T02:17:01;101261.34;;;4.91;86.53
50590;BME280;36547;50.514;30.840;2024-02-16T02:18:04;101264.90;;;4.90;86.50
50590;BME280;36547;50.514;30.840;2024-02-16T02:19:06;101256.08;;;4.91;86.51
50590;BME280;36547;50.514;30.840;2024-02-16T02:20:10;101263.11;;;4.91;86.43
50590;BME280;36547;50.514;30.840;2024-02-16T02:21:13;101261.34;;;4.91;86.39
50590;BME280;36547;50.514;30.840;2024-02-16T02:22:16;101258.71;;;4.91;86.39
50590;BME280;36547;50.514;30.840;2024-02-16T02:23:19;101261.34;;;4.91;86.37
50590;BME280;36547;50.514;30.840;2024-02-16T02:24:22;101261.34;;;4.91;86.35
50590;BME280;36547;50.514;30.840;2024-02-16T02:25:26;101263.95;;;4.94;86.39
50590;BME280;36547;50.514;30.840;2024-02-16T02:26:31;101265.73;;;4.92;86.33
50590;BME280;36547;50.514;30.840;2024-02-16T02:27:34;101267.48;;;4.92;86.27
50590;BME280;36547;50.514;30.840;2024-02-16T02:28:36;101264.84;;;4.93;86.32
50590;BME280;36547;50.514;30.840;2024-02-16T02:29:39;101267.46;;;4.95;86.26
50590;BME280;36547;50.514;30.840;2024-02-16T02:30:44;101270.08;;;4.96;86.17
50590;BME280;36547;50.514;30.840;2024-02-16T02:31:46;101265.71;;;4.94;86.08
50590;BME280;36547;50.514;30.840;2024-02-16T02:32:50;101263.06;;;4.95;86.07
50590;BME280;36547;50.514;30.840;2024-02-16T02:33:52;101264.03;;;4.90;85.97
50590;BME280;36547;50.514;30.840;2024-02-16T02:34:55;101265.73;;;4.92;86.06
50590;BME280;36547;50.514;30.840;2024-02-16T02:35:57;101276.31;;;4.89;86.02
50590;BME280;36547;50.514;30.840;2024-02-16T02:37:00;101272.75;;;4.92;86.05
50590;BME280;36547;50.514;30.840;2024-02-16T02:38:02;101270.11;;;4.93;86.05
50590;BME280;36547;50.514;30.840;2024-02-16T02:39:05;101284.16;;;4.92;85.97
50590;BME280;36547;50.514;30.840;2024-02-16T02:40:08;101270.12;;;4.92;85.94
50590;BME280;36547;50.514;30.840;2024-02-16T02:41:10;101279.75;;;4.94;85.99
50590;BME280;36547;50.514;30.840;2024-02-16T02:42:13;101280.64;;;4.93;85.92
50590;BME280;36547;50.514;30.840;2024-02-16T02:43:16;101287.66;;;4.94;85.87
50590;BME280;36547;50.514;30.840;2024-02-16T02:44:18;101274.48;;;4.94;85.82
50590;BME280;36547;50.514;30.840;2024-02-16T02:45:21;101278.00;;;4.95;85.86
50590;BME280;36547;50.514;30.840;2024-02-16T02:46:23;101285.90;;;4.95;85.80
50590;BME280;36547;50.514;30.840;2024-02-16T02:47:26;101286.74;;;4.98;85.77
50590;BME280;36547;50.514;30.840;2024-02-16T02:48:28;101280.62;;;4.96;85.73
50590;BME280;36547;50.514;30.840;2024-02-16T02:49:31;101281.49;;;4.97;85.72
50590;BME280;36547;50.514;30.840;2024-02-16T02:50:33;101279.74;;;4.96;85.67
50590;BME280;36547;50.514;30.840;2024-02-16T02:51:36;101284.14;;;4.95;85.68
50590;BME280;36547;50.514;30.840;2024-02-16T02:52:38;101289.41;;;4.95;85.72
50590;BME280;36547;50.514;30.840;2024-02-16T02:53:40;101285.88;;;4.96;85.60
50590;BME280;36547;50.514;30.840;2024-02-16T02:54:42;101289.41;;;4.95;85.60
50590;BME280;36547;50.514;30.840;2024-02-16T02:55:46;101298.19;;;4.94;85.64
50590;BME280;36547;50.514;30.840;2024-02-16T02:56:48;101290.28;;;4.96;85.66
50590;BME280;36547;50.514;30.840;2024-02-16T02:57:51;101294.67;;;4.95;85.67
50590;BME280;36547;50.514;30.840;2024-02-16T02:58:53;101294.66;;;4.97;85.64
50590;BME280;36547;50.514;30.840;2024-02-16T03:00:03;101295.55;;;4.96;85.50
50590;BME280;36547;50.514;30.840;2024-02-16T03:01:19;101292.79;;;5.07;85.56
50590;BME280;36547;50.514;30.840;2024-02-16T03:02:21;101294.78;;;4.86;85.73
50590;BME280;36547;50.514;30.840;2024-02-16T03:03:24;101293.88;;;4.89;85.77
50590;BME280;36547;50.514;30.840;2024-02-16T03:04:26;101294.75;;;4.89;85.77
50590;BME280;36547;50.514;30.840;2024-02-16T03:05:28;101294.75;;;4.89;85.76
50590;BME280;36547;50.514;30.840;2024-02-16T03:06:31;101288.55;;;4.92;85.75
50590;BME280;36547;50.514;30.840;2024-02-16T03:07:34;101292.06;;;4.92;85.71
50590;BME280;36547;50.514;30.840;2024-02-16T03:08:36;101302.59;;;4.92;85.66
50590;BME280;36547;50.514;30.840;2024-02-16T03:09:40;101303.48;;;4.91;85.64
50590;BME280;36547;50.514;30.840;2024-02-16T03:10:43;101296.50;;;4.90;85.63
50590;BME280;36547;50.514;30.840;2024-02-16T03:11:45;101294.75;;;4.89;85.64
50590;BME280;36547;50.514;30.840;2024-02-16T03:12:48;101293.88;;;4.89;85.57
50590;BME280;36547;50.514;30.840;2024-02-16T03:13:51;101293.87;;;4.90;85.57
50590;BME280;36547;50.514;30.840;2024-02-16T03:14:53;101300.91;;;4.88;85.55
50590;BME280;36547;50.514;30.840;2024-02-16T03:15:55;101300.91;;;4.88;85.62
50590;BME280;36547;50.514;30.840;2024-02-16T03:16:58;101301.78;;;4.89;85.65
50590;BME280;36547;50.514;30.840;2024-02-16T03:18:01;101301.80;;;4.87;85.61
50590;BME280;36547;50.514;30.840;2024-02-16T03:19:06;101296.52;;;4.87;85.62
50590;BME280;36547;50.514;30.840;2024-02-16T03:20:09;101302.67;;;4.88;85.61
50590;BME280;36547;50.514;30.840;2024-02-16T03:21:15;101303.54;;;4.88;85.56
50590;BME280;36547;50.514;30.840;2024-02-16T03:22:17;101306.19;;;4.87;85.53
50590;BME280;36547;50.514;30.840;2024-02-16T03:23:20;101304.42;;;4.87;85.52
50590;BME280;36547;50.514;30.840;2024-02-16T03:24:22;101309.70;;;4.86;85.49
50590;BME280;36547;50.514;30.840;2024-02-16T03:25:26;101303.56;;;4.85;85.50
50590;BME280;36547;50.514;30.840;2024-02-16T03:26:28;101305.33;;;4.83;85.50
50590;BME280;36547;50.514;30.840;2024-02-16T03:27:30;101307.95;;;4.85;85.52
50590;BME280;36547;50.514;30.840;2024-02-16T03:28:33;101303.56;;;4.85;85.51
50590;BME280;36547;50.514;30.840;2024-02-16T03:29:36;101303.56;;;4.85;85.49
50590;BME280;36547;50.514;30.840;2024-02-16T03:30:41;101312.33;;;4.87;85.53
50590;BME280;36547;50.514;30.840;2024-02-16T03:31:43;101301.80;;;4.87;85.47
50590;BME280;36547;50.514;30.840;2024-02-16T03:32:49;101310.59;;;4.85;85.43
50590;BME280;36547;50.514;30.840;2024-02-16T03:33:52;101310.60;;;4.83;85.46
50590;BME280;36547;50.514;30.840;2024-02-16T03:34:57;101307.08;;;4.84;85.42
50590;BME280;36547;50.514;30.840;2024-02-16T03:35:59;101308.83;;;4.85;85.49
50590;BME280;36547;50.514;30.840;2024-02-16T03:37:01;101306.20;;;4.85;85.42
50590;BME280;36547;50.514;30.840;2024-02-16T03:38:05;101312.34;;;4.84;85.41
50590;BME280;36547;50.514;30.840;2024-02-16T03:39:07;101308.83;;;4.85;85.41
50590;BME280;36547;50.514;30.840;2024-02-16T03:40:11;101316.73;;;4.85;85.40
50590;BME280;36547;50.514;30.840;2024-02-16T03:41:17;101307.08;;;4.84;85.40
50590;BME280;36547;50.514;30.840;2024-02-16T03:42:19;101308.85;;;4.82;85.34
50590;BME280;36547;50.514;30.840;2024-02-16T03:43:21;101309.73;;;4.81;85.41
50590;BME280;36547;50.514;30.840;2024-02-16T03:44:23;101304.46;;;4.83;85.45
50590;BME280;36547;50.514;30.840;2024-02-16T03:45:26;101305.33;;;4.83;85.45
50590;BME280;36547;50.514;30.840;2024-02-16T03:46:28;101302.70;;;4.83;85.41
50590;BME280;36547;50.514;30.840;2024-02-16T03:47:31;101303.58;;;4.84;85.37
50590;BME280;36547;50.514;30.840;2024-02-16T03:48:33;101307.09;;;4.83;85.30
50590;BME280;36547;50.514;30.840;2024-02-16T03:49:35;101310.60;;;4.83;85.31
50590;BME280;36547;50.514;30.840;2024-02-16T03:50:37;101312.34;;;4.84;85.31
50590;BME280;36547;50.514;30.840;2024-02-16T03:51:40;101308.84;;;4.84;85.26
50590;BME280;36547;50.514;30.840;2024-02-16T03:52:42;101315.87;;;4.83;85.25
50590;BME280;36547;50.514;30.840;2024-02-16T03:53:45;101314.99;;;4.83;85.22
50590;BME280;36547;50.514;30.840;2024-02-16T03:54:48;101317.62;;;4.84;85.23
50590;BME280;36547;50.514;30.840;2024-02-16T03:55:50;101317.62;;;4.84;85.20
50590;BME280;36547;50.514;30.840;2024-02-16T03:56:54;101317.62;;;4.84;85.17
50590;BME280;36547;50.514;30.840;2024-02-16T03:57:56;101310.58;;;4.86;85.21
50590;BME280;36547;50.514;30.840;2024-02-16T03:58:59;101312.34;;;4.84;85.11
50590;BME280;36547;50.514;30.840;2024-02-16T04:00:01;101307.08;;;4.84;85.16
50590;BME280;36547;50.514;30.840;2024-02-16T04:01:06;101317.63;;;4.83;85.20
50590;BME280;36547;50.514;30.840;2024-02-16T04:02:08;101314.13;;;4.82;85.19
50590;BME280;36547;50.514;30.840;2024-02-16T04:03:10;101316.75;;;4.82;85.23
50590;BME280;36547;50.514;30.840;2024-02-16T04:04:13;101319.38;;;4.84;85.26
50590;BME280;36547;50.514;30.840;2024-02-16T04:05:15;101322.88;;;4.84;85.21
50590;BME280;36547;50.514;30.840;2024-02-16T04:06:18;101324.63;;;4.85;85.16
50590;BME280;36547;50.514;30.840;2024-02-16T04:07:20;101326.38;;;4.86;85.16
50590;BME280;36547;50.514;30.840;2024-02-16T04:08:23;101321.13;;;4.83;85.11
50590;BME280;36547;50.514;30.840;2024-02-16T04:09:25;101328.15;;;4.84;85.12
50590;BME280;36547;50.514;30.840;2024-02-16T04:10:28;101330.77;;;4.86;85.12
50590;BME280;36547;50.514;30.840;2024-02-16T04:11:30;101326.38;;;4.86;85.06
50590;BME280;36547;50.514;30.840;2024-02-16T04:12:33;101323.75;;;4.86;84.99
50590;BME280;36547;50.514;30.840;2024-02-16T04:13:35;101326.39;;;4.85;84.98
50590;BME280;36547;50.514;30.840;2024-02-16T04:14:38;101322.89;;;4.83;85.01
50590;BME280;36547;50.514;30.840;2024-02-16T04:15:40;101321.13;;;4.85;85.05
50590;BME280;36547;50.514;30.840;2024-02-16T04:16:43;101329.02;;;4.85;85.04
50590;BME280;36547;50.514;30.840;2024-02-16T04:17:46;101326.41;;;4.83;85.05
50590;BME280;36547;50.514;30.840;2024-02-16T04:18:49;101324.66;;;4.82;85.10
50590;BME280;36547;50.514;30.840;2024-02-16T04:19:51;101330.80;;;4.81;85.19
50590;BME280;36547;50.514;30.840;2024-02-16T04:20:54;101326.42;;;4.80;85.20
50590;BME280;36547;50.514;30.840;2024-02-16T04:21:57;101342.20;;;4.83;85.20
50590;BME280;36547;50.514;30.840;2024-02-16T04:23:01;101342.20;;;4.83;85.21
50590;BME280;36547;50.514;30.840;2024-02-16T04:24:04;101342.20;;;4.83;85.20
50590;BME280;36547;50.514;30.840;2024-02-16T04:25:06;101341.33;;;4.83;85.21
50590;BME280;36547;50.514;30.840;2024-02-16T04:26:10;101339.56;;;4.83;85.20
50590;BME280;36547;50.514;30.840;2024-02-16T04:27:12;101336.92;;;4.85;85.17
50590;BME280;36547;50.514;30.840;2024-02-16T04:28:15;101336.05;;;4.84;85.11
50590;BME280;36547;50.514;30.840;2024-02-16T04:29:17;101337.82;;;4.82;85.02
50590;BME280;36547;50.514;30.840;2024-02-16T04:30:20;101340.45;;;4.82;85.03
50590;BME280;36547;50.514;30.840;2024-02-16T04:31:22;101342.20;;;4.83;85.05
50590;BME280;36547;50.514;30.840;2024-02-16T04:32:24;101342.22;;;4.80;85.04
50590;BME280;36547;50.514;30.840;2024-02-16T04:33:26;101341.34;;;4.81;85.06
50590;BME280;36547;50.514;30.840;2024-02-16T04:34:29;101342.20;;;4.83;85.10
50590;BME280;36547;50.514;30.840;2024-02-16T04:35:31;101341.31;;;4.84;85.09
50590;BME280;36547;50.514;30.840;2024-02-16T04:36:34;101345.70;;;4.84;85.01
50590;BME280;36547;50.514;30.840;2024-02-16T04:37:36;101345.70;;;4.85;85.02
50590;BME280;36547;50.514;30.840;2024-02-16T04:38:38;101347.47;;;4.83;85.01
50590;BME280;36547;50.514;30.840;2024-02-16T04:39:41;101356.25;;;4.82;85.05
50590;BME280;36547;50.514;30.840;2024-02-16T04:40:44;101348.34;;;4.84;85.08
50590;BME280;36547;50.514;30.840;2024-02-16T04:41:46;101343.97;;;4.81;85.11
50590;BME280;36547;50.514;30.840;2024-02-16T04:42:48;101352.73;;;4.83;85.10
50590;BME280;36547;50.514;30.840;2024-02-16T04:43:51;101351.86;;;4.83;85.10
50590;BME280;36547;50.514;30.840;2024-02-16T04:44:54;101348.35;;;4.82;85.10
50590;BME280;36547;50.514;30.840;2024-02-16T04:45:57;101348.35;;;4.82;85.05
50590;BME280;36547;50.514;30.840;2024-02-16T04:46:59;101347.48;;;4.82;85.10
50590;BME280;36547;50.514;30.840;2024-02-16T04:49:20;101353.48;;;4.96;85.10
50590;BME280;36547;50.514;30.840;2024-02-16T04:50:23;101346.63;;;4.77;85.19
50590;BME280;36547;50.514;30.840;2024-02-16T04:51:26;101347.51;;;4.77;85.17
50590;BME280;36547;50.514;30.840;2024-02-16T04:52:28;101350.98;;;4.82;85.22
50590;BME280;36547;50.514;30.840;2024-02-16T04:53:32;101352.75;;;4.80;85.11
50590;BME280;36547;50.514;30.840;2024-02-16T04:54:35;101357.14;;;4.80;85.07
50590;BME280;36547;50.514;30.840;2024-02-16T04:55:37;101350.11;;;4.82;85.10
50590;BME280;36547;50.514;30.840;2024-02-16T04:56:40;101348.35;;;4.82;85.08
50590;BME280;36547;50.514;30.840;2024-02-16T04:57:42;101359.77;;;4.81;84.99
50590;BME280;36547;50.514;30.840;2024-02-16T04:58:45;101352.75;;;4.80;85.03
50590;BME280;36547;50.514;30.840;2024-02-16T04:59:48;101345.72;;;4.82;85.05
50590;BME280;36547;50.514;30.840;2024-02-16T05:00:50;101358.02;;;4.80;85.04
50590;BME280;36547;50.514;30.840;2024-02-16T05:01:53;101352.75;;;4.80;85.09
50590;BME280;36547;50.514;30.840;2024-02-16T05:02:55;101358.89;;;4.82;85.10
50590;BME280;36547;50.514;30.840;2024-02-16T05:04:00;101356.23;;;4.85;85.09
50590;BME280;36547;50.514;30.840;2024-02-16T05:05:04;101358.89;;;4.82;85.03
50590;BME280;36547;50.514;30.840;2024-02-16T05:06:07;101354.48;;;4.84;85.04
50590;BME280;36547;50.514;30.840;2024-02-16T05:07:09;101358.87;;;4.84;84.99
50590;BME280;36547;50.514;30.840;2024-02-16T05:08:12;101359.77;;;4.81;85.02
50590;BME280;36547;50.514;30.840;2024-02-16T05:09:14;101357.14;;;4.81;85.05
50590;BME280;36547;50.514;30.840;2024-02-16T05:10:17;101355.39;;;4.79;85.07
50590;BME280;36547;50.514;30.840;2024-02-16T05:11:19;101358.91;;;4.78;85.11
50590;BME280;36547;50.514;30.840;2024-02-16T05:12:22;101354.53;;;4.77;85.16
50590;BME280;36547;50.514;30.840;2024-02-16T05:13:24;101358.04;;;4.77;85.22
50590;BME280;36547;50.514;30.840;2024-02-16T05:14:26;101354.53;;;4.77;85.22
50590;BME280;36547;50.514;30.840;2024-02-16T05:15:29;101355.46;;;4.74;85.30
50590;BME280;36547;50.514;30.840;2024-02-16T05:16:32;101360.67;;;4.77;85.37
50590;BME280;36547;50.514;30.840;2024-02-16T05:17:34;101358.09;;;4.76;85.41
50590;BME280;36547;50.514;30.840;2024-02-16T05:18:37;101358.97;;;4.75;85.42
50590;BME280;36547;50.514;30.840;2024-02-16T05:19:40;101365.11;;;4.75;85.44
50590;BME280;36547;50.514;30.840;2024-02-16T05:20:42;101359.79;;;4.78;85.50
50590;BME280;36547;50.514;30.840;2024-02-16T05:21:45;101360.73;;;4.74;85.51
50590;BME280;36547;50.514;30.840;2024-02-16T05:22:47;101365.11;;;4.75;85.57
50590;BME280;36547;50.514;30.840;2024-02-16T05:23:49;101363.30;;;4.79;85.58
50590;BME280;36547;50.514;30.840;2024-02-16T05:24:52;101368.57;;;4.77;85.50
50590;BME280;36547;50.514;30.840;2024-02-16T05:25:54;101372.09;;;4.76;85.54
50590;BME280;36547;50.514;30.840;2024-02-16T05:26:56;101372.97;;;4.77;85.54
50590;BME280;36547;50.514;30.840;2024-02-16T05:27:59;101365.99;;;4.74;85.56
50590;BME280;36547;50.514;30.840;2024-02-16T05:29:02;101363.36;;;4.74;85.64